Cameron, Illinois
Current Conditions -  °F | °C
As of 12:15 PM on Wednesday 26 Nov 2014 (Local Time) from KGBG Reporting Station
Overcast Overcast  
Wind Chill: 24°   Ceiling: 4800
Heat Index: 31°   Visibility: 10mi
Dew Point: 28°   Wind: 7mph
Humidity: 86%   Direction: 100°E
Pressure: 30.02"   Gusts: NA
Location:  40.89°N, 90.52°W
Report Text: KGBG 261815Z AUTO 10006KT 10SM SCT011 OVC048 00/M02 A3002 RMK AO2 T10051025
Loading
Personal Weather Stations






























Interactive Weather Map New forecast layout! Learn more

10-Day Weather Forecast

Advertisements
Track Severe Weather on mobile